GST weather

Gustavus Airport
Gustavus, Alaska, United States

Public forecast

Using degrees Fahrenheit for public forecast. Weather courtesy of forecast.io.

Current aviation weather report (METAR) for Gustavus Airport

Retrieved 2020/07/04 23:56 UTC (31 minutes ago):

PAGS 042356Z AUTO 24009KT 10SM OVC060 16/11 A3014 RMK AO2 SLP207 T01560111 10167 20150 53006

Aviation forecast (TAF) for Gustavus Airport

Retrieved 2020-07-05 00:33 UTC (0 seconds ago):

TAF PAGS 042331Z 0500/0524 22005KT P6SM OVC050 FM050600 VRB02KT P6SM BKN015 OVC035 FM050900 00000KT P6SM SCT007 OVC015 FM052100 24005KT P6SM FEW007 SCT015 OVC050 AMD LTD TO CLD VIS AND WIND